Time;durP1;ratioP1;P1;durP2;ratioP2;P2;SDS_P1;SDS_P2;PMS_P1;PMS_P2;Temp;Humidity;BMP_temperature;BMP_pressure;BME280_temperature;BME280_humidity;BME280_pressure;Samples;Min_cycle;Max_cycle;Signal;HPM_P1;HPM_P2
2022/05/09 00:01:55;;;;;;;4.68;1.88;;;;;;;;;;4850629;29;20105;-82
2022/05/09 00:04:21;;;;;;;4.75;1.95;;;;;;;;;;4854461;29;20029;-81
2022/05/09 00:06:47;;;;;;;6.40;2.33;;;;;;;;;;4847885;29;20034;-86
2022/05/09 00:09:13;;;;;;;4.05;1.80;;;;;;;;;;4835619;29;20033;-82
2022/05/09 00:11:38;;;;;;;5.07;1.90;;;;;;;;;;4850396;29;20060;-87
2022/05/09 00:14:04;;;;;;;5.60;2.20;;;;;;;;;;4835950;29;20086;-86
2022/05/09 00:16:33;;;;;;;5.80;1.90;;;;;;;;;;4847278;29;20068;-87
2022/05/09 00:19:10;;;;;;;5.20;1.70;;;;;;;;;;4827127;29;20679;-86
2022/05/09 00:21:39;;;;;;;4.07;1.60;;;;;;;;;;4850310;29;20039;-79
2022/05/09 00:24:05;;;;;;;5.75;1.80;;;;;;;;;;4835166;29;20025;-87
2022/05/09 00:26:31;;;;;;;4.82;2.00;;;;;;;;;;4836478;29;20038;-80
2022/05/09 00:29:03;;;;;;;4.57;1.65;;;;;;;;;;4833052;29;20512;-80
2022/05/09 00:31:29;;;;;;;4.18;2.10;;;;;;;;;;4834655;29;20661;-80
2022/05/09 00:33:55;;;;;;;4.20;1.85;;;;;;;;;;4848092;29;20112;-80
2022/05/09 00:36:21;;;;;;;5.30;2.17;;;;;;;;;;4844404;29;20022;-86
2022/05/09 00:38:47;;;;;;;4.20;1.95;;;;;;;;;;4836860;29;20058;-82
2022/05/09 00:41:29;;;;;;;5.20;2.40;;;;;;;;;;4850914;29;20100;-86
2022/05/09 00:43:55;;;;;;;2.88;1.70;;;;;;;;;;4835473;29;20093;-80
2022/05/09 00:46:25;;;;;;;5.93;1.85;;;;;;;;;;4835549;29;20064;-79
2022/05/09 00:48:50;;;;;;;6.07;1.80;;;;;;;;;;4847290;29;20045;-80
2022/05/09 00:51:25;;;;;;;5.35;2.03;;;;;;;;;;4848282;29;20038;-82
2022/05/09 00:53:53;;;;;;;5.32;1.70;;;;;;;;;;4836688;29;20465;-79
2022/05/09 00:56:29;;;;;;;5.88;1.85;;;;;;;;;;4846294;29;20033;-81
2022/05/09 00:58:58;;;;;;;4.43;1.73;;;;;;;;;;4848562;29;20128;-81
2022/05/09 01:01:24;;;;;;;4.28;1.75;;;;;;;;;;4833646;29;20514;-86
2022/05/09 01:03:54;;;;;;;6.57;2.00;;;;;;;;;;4850266;29;20029;-85
2022/05/09 01:06:19;;;;;;;4.97;2.10;;;;;;;;;;4840888;29;20029;-79
2022/05/09 01:08:45;;;;;;;5.75;2.40;;;;;;;;;;4837688;29;20373;-84
2022/05/09 01:11:18;;;;;;;6.07;2.17;;;;;;;;;;4852290;29;20040;-81
2022/05/09 01:13:48;;;;;;;4.80;1.63;;;;;;;;;;4846045;29;20030;-81
2022/05/09 01:16:16;;;;;;;4.43;2.00;;;;;;;;;;4848699;29;20038;-79
2022/05/09 01:18:43;;;;;;;5.57;2.15;;;;;;;;;;4850284;29;20032;-85
2022/05/09 01:21:39;;;;;;;5.20;2.08;;;;;;;;;;4833296;29;20045;-86
2022/05/09 01:24:13;;;;;;;5.68;1.80;;;;;;;;;;4852537;29;20030;-86
2022/05/09 01:26:38;;;;;;;7.78;2.25;;;;;;;;;;4838625;29;20094;-87
2022/05/09 01:29:08;;;;;;;8.95;2.28;;;;;;;;;;4848686;29;20445;-82
2022/05/09 01:31:35;;;;;;;5.40;1.80;;;;;;;;;;4851130;29;20069;-81
2022/05/09 01:34:01;;;;;;;4.13;1.60;;;;;;;;;;4850085;29;20041;-85
2022/05/09 01:36:31;;;;;;;6.38;2.00;;;;;;;;;;4848864;29;20480;-87
2022/05/09 01:39:00;;;;;;;7.55;2.10;;;;;;;;;;4835246;29;20495;-80
2022/05/09 01:41:27;;;;;;;6.25;2.00;;;;;;;;;;4852869;29;20559;-82
2022/05/09 01:43:55;;;;;;;6.13;2.65;;;;;;;;;;4833479;29;20033;-81
2022/05/09 01:46:31;;;;;;;5.63;1.80;;;;;;;;;;4829059;29;20033;-86
2022/05/09 01:51:43;;;;;;;4.60;2.10;;;;;;;;;;4852615;29;20048;-80
2022/05/09 01:54:10;;;;;;;5.80;1.60;;;;;;;;;;4837971;29;20033;-80
2022/05/09 01:56:38;;;;;;;6.15;1.98;;;;;;;;;;4857291;29;20022;-86
2022/05/09 01:59:06;;;;;;;7.35;2.05;;;;;;;;;;4840761;29;20152;-81
2022/05/09 02:01:38;;;;;;;6.55;2.15;;;;;;;;;;4850316;29;21065;-85
2022/05/09 02:04:04;;;;;;;7.70;2.00;;;;;;;;;;4840800;29;20041;-80
2022/05/09 02:06:30;;;;;;;7.93;2.40;;;;;;;;;;4836736;29;20113;-85
2022/05/09 02:08:56;;;;;;;5.32;1.83;;;;;;;;;;4840180;29;20124;-82
2022/05/09 02:11:21;;;;;;;5.60;2.25;;;;;;;;;;4848781;29;20034;-87
2022/05/09 02:13:46;;;;;;;4.75;1.88;;;;;;;;;;4854623;29;20037;-85
2022/05/09 02:16:12;;;;;;;6.85;2.05;;;;;;;;;;4848982;29;20040;-87
2022/05/09 02:18:38;;;;;;;5.05;2.05;;;;;;;;;;4850643;29;20059;-81
2022/05/09 02:21:04;;;;;;;4.15;1.83;;;;;;;;;;4839895;29;20112;-86
2022/05/09 02:23:29;;;;;;;6.28;2.05;;;;;;;;;;4854316;29;20041;-85
2022/05/09 02:25:55;;;;;;;6.32;1.90;;;;;;;;;;4836555;29;20026;-86
2022/05/09 02:28:23;;;;;;;4.15;1.80;;;;;;;;;;4850608;29;20491;-80
2022/05/09 02:30:49;;;;;;;6.53;1.80;;;;;;;;;;4846673;29;20081;-81
2022/05/09 02:33:15;;;;;;;5.20;2.33;;;;;;;;;;4837090;29;20057;-86
2022/05/09 02:35:41;;;;;;;6.00;1.80;;;;;;;;;;4838840;29;20465;-80
2022/05/09 02:38:07;;;;;;;6.80;2.03;;;;;;;;;;4853591;29;20097;-80
2022/05/09 02:40:35;;;;;;;4.57;1.95;;;;;;;;;;4852528;29;20044;-88
2022/05/09 02:43:01;;;;;;;5.40;2.00;;;;;;;;;;4842919;29;20029;-86
2022/05/09 02:45:27;;;;;;;5.93;2.03;;;;;;;;;;4851065;29;20041;-85
2022/05/09 02:47:54;;;;;;;5.20;1.98;;;;;;;;;;4835826;29;20105;-87
2022/05/09 02:50:21;;;;;;;4.05;1.80;;;;;;;;;;4849219;29;20029;-80
2022/05/09 02:52:48;;;;;;;6.07;2.17;;;;;;;;;;4835088;29;20543;-86
2022/05/09 02:55:13;;;;;;;4.97;1.90;;;;;;;;;;4840711;29;20488;-85
2022/05/09 02:57:38;;;;;;;6.35;2.10;;;;;;;;;;4836201;29;20022;-82
2022/05/09 03:00:08;;;;;;;6.28;2.60;;;;;;;;;;4849704;29;20056;-86
2022/05/09 03:02:34;;;;;;;3.88;2.00;;;;;;;;;;4853690;29;20136;-79
2022/05/09 03:04:59;;;;;;;5.90;2.13;;;;;;;;;;4836911;29;20169;-86
2022/05/09 03:07:25;;;;;;;5.78;2.25;;;;;;;;;;4836582;29;20057;-81
2022/05/09 03:09:50;;;;;;;5.57;2.10;;;;;;;;;;4840873;29;20037;-87
2022/05/09 03:12:19;;;;;;;5.63;2.22;;;;;;;;;;4852770;29;20029;-80
2022/05/09 03:14:46;;;;;;;4.63;2.10;;;;;;;;;;4849288;29;20029;-80
2022/05/09 03:17:12;;;;;;;5.00;1.88;;;;;;;;;;4850408;29;20506;-86
2022/05/09 03:19:38;;;;;;;4.90;2.28;;;;;;;;;;4829299;29;20121;-86
2022/05/09 03:22:03;;;;;;;5.38;1.95;;;;;;;;;;4838193;29;20089;-85
2022/05/09 03:24:29;;;;;;;4.10;2.03;;;;;;;;;;4835249;29;20029;-79
2022/05/09 03:26:55;;;;;;;8.68;2.22;;;;;;;;;;4850270;29;20496;-82
2022/05/09 03:29:21;;;;;;;4.78;2.03;;;;;;;;;;4851972;29;20096;-88
2022/05/09 03:31:52;;;;;;;6.25;2.30;;;;;;;;;;4840962;29;20083;-78
2022/05/09 03:34:17;;;;;;;4.20;1.90;;;;;;;;;;4851839;29;20033;-87
2022/05/09 03:36:42;;;;;;;5.05;2.30;;;;;;;;;;4836295;29;20116;-79
2022/05/09 03:39:08;;;;;;;7.68;2.42;;;;;;;;;;4839448;29;20038;-87
2022/05/09 03:41:34;;;;;;;7.05;3.00;;;;;;;;;;4835310;29;20101;-78
2022/05/09 03:43:59;;;;;;;5.47;2.28;;;;;;;;;;4832696;29;20455;-86
2022/05/09 03:46:24;;;;;;;6.57;2.10;;;;;;;;;;4854930;29;20057;-82
2022/05/09 03:48:50;;;;;;;4.30;2.40;;;;;;;;;;4851592;29;20034;-81
2022/05/09 03:51:15;;;;;;;5.38;2.15;;;;;;;;;;4854063;29;20058;-80
2022/05/09 03:53:41;;;;;;;8.00;2.38;;;;;;;;;;4834176;29;20022;-86
2022/05/09 03:56:07;;;;;;;5.70;2.05;;;;;;;;;;4840640;29;20079;-79
2022/05/09 03:58:32;;;;;;;6.05;2.67;;;;;;;;;;4848183;29;20441;-81
2022/05/09 04:00:57;;;;;;;5.28;2.20;;;;;;;;;;4847746;29;20033;-80
2022/05/09 04:03:23;;;;;;;6.93;2.38;;;;;;;;;;4835959;29;20036;-80
2022/05/09 04:05:48;;;;;;;5.65;2.20;;;;;;;;;;4835371;29;20041;-81
2022/05/09 04:08:17;;;;;;;4.70;2.03;;;;;;;;;;4837536;29;20033;-86
2022/05/09 04:10:44;;;;;;;7.70;2.33;;;;;;;;;;4852800;29;20078;-81
2022/05/09 04:13:10;;;;;;;5.15;2.20;;;;;;;;;;4835745;29;20125;-87
2022/05/09 04:18:23;;;;;;;5.13;2.47;;;;;;;;;;4852881;29;20067;-86
2022/05/09 04:20:50;;;;;;;6.82;2.22;;;;;;;;;;4848719;29;20021;-79
2022/05/09 04:23:16;;;;;;;6.57;2.20;;;;;;;;;;4839502;29;20037;-86
2022/05/09 04:25:43;;;;;;;6.40;2.17;;;;;;;;;;4834645;29;20036;-82
2022/05/09 04:28:09;;;;;;;5.88;2.25;;;;;;;;;;4835135;29;20030;-81
2022/05/09 04:30:38;;;;;;;6.03;2.40;;;;;;;;;;4851806;29;20409;-78
2022/05/09 04:33:04;;;;;;;8.18;2.58;;;;;;;;;;4837409;29;20491;-79
2022/05/09 04:35:30;;;;;;;5.90;2.40;;;;;;;;;;4831832;29;20512;-81
2022/05/09 04:37:56;;;;;;;6.22;2.70;;;;;;;;;;4849895;29;20104;-86
2022/05/09 04:40:30;;;;;;;9.43;3.13;;;;;;;;;;4835619;29;20128;-85
2022/05/09 04:42:59;;;;;;;5.57;2.30;;;;;;;;;;4839731;29;20040;-85
2022/05/09 04:45:26;;;;;;;8.13;2.47;;;;;;;;;;4848113;29;20048;-81
2022/05/09 04:47:52;;;;;;;6.97;2.53;;;;;;;;;;4833753;29;20047;-87
2022/05/09 04:50:21;;;;;;;7.40;2.60;;;;;;;;;;4849023;29;20037;-80
2022/05/09 04:52:46;;;;;;;5.65;2.65;;;;;;;;;;4850753;29;20032;-85
2022/05/09 04:55:13;;;;;;;5.43;2.25;;;;;;;;;;4832916;29;20029;-86
2022/05/09 04:57:39;;;;;;;7.75;2.70;;;;;;;;;;4849866;29;20449;-82
2022/05/09 05:00:07;;;;;;;10.27;2.83;;;;;;;;;;4848425;29;20235;-86
2022/05/09 05:02:33;;;;;;;7.20;2.40;;;;;;;;;;4846733;29;20046;-85
2022/05/09 05:04:58;;;;;;;9.07;2.65;;;;;;;;;;4853298;29;20036;-85
2022/05/09 05:07:23;;;;;;;6.20;2.53;;;;;;;;;;4853431;29;20021;-81
2022/05/09 05:09:49;;;;;;;5.70;2.58;;;;;;;;;;4849449;29;20038;-80
2022/05/09 05:12:14;;;;;;;7.53;2.75;;;;;;;;;;4835918;29;20065;-79
2022/05/09 05:14:40;;;;;;;7.85;2.70;;;;;;;;;;4843108;29;20040;-78
2022/05/09 05:17:05;;;;;;;5.43;2.28;;;;;;;;;;4834178;29;20033;-85
2022/05/09 05:19:35;;;;;;;10.15;2.45;;;;;;;;;;4838495;29;20456;-81
2022/05/09 05:22:02;;;;;;;5.63;2.80;;;;;;;;;;4851290;29;20033;-79
2022/05/09 05:24:27;;;;;;;6.07;2.67;;;;;;;;;;4853991;29;20049;-86
2022/05/09 05:26:54;;;;;;;8.18;2.70;;;;;;;;;;4839356;29;20041;-85
2022/05/09 05:29:21;;;;;;;6.38;3.05;;;;;;;;;;4840413;29;20396;-78
2022/05/09 05:31:46;;;;;;;6.07;3.58;;;;;;;;;;4851733;29;20411;-80
2022/05/09 05:34:12;;;;;;;5.78;2.45;;;;;;;;;;4850661;29;20029;-80
2022/05/09 05:36:37;;;;;;;7.93;2.85;;;;;;;;;;4850589;29;20057;-85
2022/05/09 05:39:03;;;;;;;6.43;3.00;;;;;;;;;;4852432;29;20066;-79
2022/05/09 05:41:31;;;;;;;5.88;3.10;;;;;;;;;;4833137;29;20703;-86
2022/05/09 05:43:57;;;;;;;7.80;2.85;;;;;;;;;;4854121;29;20038;-85
2022/05/09 05:46:22;;;;;;;8.05;2.97;;;;;;;;;;4851204;29;20048;-79
2022/05/09 05:48:47;;;;;;;10.10;3.30;;;;;;;;;;4834940;29;20033;-85
2022/05/09 05:51:14;;;;;;;7.28;2.72;;;;;;;;;;4834843;29;20063;-82
2022/05/09 05:53:40;;;;;;;8.40;3.25;;;;;;;;;;4847057;29;20026;-85
2022/05/09 05:56:05;;;;;;;7.10;2.92;;;;;;;;;;4863242;29;20048;-79
2022/05/09 05:58:31;;;;;;;6.25;3.00;;;;;;;;;;4836235;29;20061;-86
2022/05/09 06:00:56;;;;;;;5.18;2.80;;;;;;;;;;4853629;29;20029;-78
2022/05/09 06:03:22;;;;;;;8.43;2.75;;;;;;;;;;4852967;29;20543;-85
2022/05/09 06:05:48;;;;;;;5.85;2.50;;;;;;;;;;4841444;29;20049;-84
2022/05/09 06:08:13;;;;;;;9.45;2.97;;;;;;;;;;4837708;29;20061;-81
2022/05/09 06:10:39;;;;;;;9.63;3.00;;;;;;;;;;4852976;29;20050;-84
2022/05/09 06:13:05;;;;;;;7.28;3.00;;;;;;;;;;4838202;29;20085;-79
2022/05/09 06:15:36;;;;;;;11.77;3.78;;;;;;;;;;4849465;29;20034;-84
2022/05/09 06:18:04;;;;;;;6.78;2.95;;;;;;;;;;4853035;29;20145;-84
2022/05/09 06:20:32;;;;;;;9.55;3.33;;;;;;;;;;4852830;29;20029;-79
2022/05/09 06:22:59;;;;;;;9.23;3.20;;;;;;;;;;4854857;29;20036;-85
2022/05/09 06:25:26;;;;;;;6.78;2.90;;;;;;;;;;4855729;29;20025;-81
2022/05/09 06:27:52;;;;;;;8.05;2.97;;;;;;;;;;4851034;29;20037;-85
2022/05/09 06:30:21;;;;;;;6.68;3.30;;;;;;;;;;4842374;29;20061;-79
2022/05/09 06:32:47;;;;;;;7.45;3.17;;;;;;;;;;4843457;29;20025;-85
2022/05/09 06:35:20;;;;;;;7.78;3.28;;;;;;;;;;4850611;29;20452;-81
2022/05/09 06:37:46;;;;;;;6.78;3.03;;;;;;;;;;4842092;29;20025;-85
2022/05/09 06:40:12;;;;;;;8.07;3.30;;;;;;;;;;4839183;29;20037;-85
2022/05/09 06:42:38;;;;;;;7.45;3.47;;;;;;;;;;4836831;29;20037;-82
2022/05/09 06:45:04;;;;;;;8.77;3.20;;;;;;;;;;4843883;29;20484;-85
2022/05/09 06:47:29;;;;;;;10.40;3.05;;;;;;;;;;4853530;29;20120;-80
2022/05/09 06:49:59;;;;;;;7.13;3.50;;;;;;;;;;4857134;29;20111;-84
2022/05/09 06:52:24;;;;;;;7.50;3.38;;;;;;;;;;4840246;29;20029;-79
2022/05/09 06:54:50;;;;;;;5.03;2.95;;;;;;;;;;4842404;29;20081;-86
2022/05/09 06:57:15;;;;;;;9.38;3.78;;;;;;;;;;4857241;29;20037;-79
2022/05/09 06:59:41;;;;;;;10.45;3.75;;;;;;;;;;4851923;29;20041;-79
2022/05/09 07:02:12;;;;;;;8.07;3.47;;;;;;;;;;4851496;29;20026;-85
2022/05/09 07:04:38;;;;;;;7.03;3.13;;;;;;;;;;4859722;29;20031;-86
2022/05/09 07:07:04;;;;;;;9.05;3.58;;;;;;;;;;4855341;29;20037;-79
2022/05/09 07:09:29;;;;;;;7.75;3.35;;;;;;;;;;4856902;29;20028;-85
2022/05/09 07:11:54;;;;;;;11.20;3.60;;;;;;;;;;4856052;29;20523;-79
2022/05/09 07:14:20;;;;;;;8.13;3.67;;;;;;;;;;4839555;29;20022;-86
2022/05/09 07:16:46;;;;;;;10.02;3.72;;;;;;;;;;4857581;29;20159;-86
2022/05/09 07:19:11;;;;;;;7.10;3.60;;;;;;;;;;4852698;29;20022;-84
2022/05/09 07:21:37;;;;;;;7.32;3.08;;;;;;;;;;4854789;29;20048;-85
2022/05/09 07:24:03;;;;;;;6.38;3.08;;;;;;;;;;4837838;29;20396;-87
2022/05/09 07:26:28;;;;;;;7.53;3.13;;;;;;;;;;4851777;29;20026;-86
2022/05/09 07:28:53;;;;;;;7.35;3.08;;;;;;;;;;4857476;29;20064;-80
2022/05/09 07:31:19;;;;;;;6.38;2.90;;;;;;;;;;4848770;29;20045;-81
2022/05/09 07:33:44;;;;;;;7.10;2.67;;;;;;;;;;4838294;29;20082;-85
2022/05/09 07:36:10;;;;;;;7.75;2.75;;;;;;;;;;4850502;29;20033;-80
2022/05/09 07:38:35;;;;;;;8.93;3.33;;;;;;;;;;4856159;29;20026;-82
2022/05/09 07:41:01;;;;;;;6.25;2.80;;;;;;;;;;4859357;29;20037;-86
2022/05/09 07:43:29;;;;;;;8.52;3.13;;;;;;;;;;4855543;29;20033;-81
2022/05/09 07:45:56;;;;;;;7.03;2.95;;;;;;;;;;4840675;29;20033;-85
2022/05/09 07:48:23;;;;;;;8.13;3.72;;;;;;;;;;4839512;29;20028;-85
2022/05/09 07:50:50;;;;;;;5.38;2.67;;;;;;;;;;4856653;29;20029;-85
2022/05/09 07:53:19;;;;;;;8.70;3.30;;;;;;;;;;4853116;29;20112;-80
2022/05/09 07:55:48;;;;;;;6.95;2.80;;;;;;;;;;4850978;29;20037;-82
2022/05/09 07:58:13;;;;;;;6.43;3.03;;;;;;;;;;4852472;29;20128;-85
2022/05/09 08:00:41;;;;;;;6.72;3.13;;;;;;;;;;4853235;29;20487;-86
2022/05/09 08:03:12;;;;;;;6.68;2.50;;;;;;;;;;4843942;29;20503;-85
2022/05/09 08:05:37;;;;;;;6.55;2.80;;;;;;;;;;4840180;29;20033;-85
2022/05/09 08:08:03;;;;;;;5.75;2.92;;;;;;;;;;4854783;29;20042;-84
2022/05/09 08:10:30;;;;;;;7.13;2.90;;;;;;;;;;4848856;29;20495;-86
2022/05/09 08:12:56;;;;;;;6.50;2.83;;;;;;;;;;4858939;29;20496;-84
2022/05/09 08:15:22;;;;;;;6.22;3.20;;;;;;;;;;4845521;29;20548;-86
2022/05/09 08:17:49;;;;;;;7.18;2.80;;;;;;;;;;4842198;29;20013;-85
2022/05/09 08:20:16;;;;;;;6.35;3.03;;;;;;;;;;4847995;29;20385;-85
2022/05/09 08:22:42;;;;;;;6.00;3.25;;;;;;;;;;4856844;29;20033;-85
2022/05/09 08:25:10;;;;;;;8.25;2.83;;;;;;;;;;4858420;29;20029;-85
2022/05/09 08:27:36;;;;;;;9.30;3.63;;;;;;;;;;4841368;29;20483;-80
2022/05/09 08:30:03;;;;;;;6.65;2.78;;;;;;;;;;4856390;29;20033;-85
2022/05/09 08:32:29;;;;;;;7.30;2.63;;;;;;;;;;4853427;29;20057;-80
2022/05/09 08:34:56;;;;;;;7.18;2.88;;;;;;;;;;4842992;29;20484;-80
2022/05/09 08:37:21;;;;;;;7.03;3.00;;;;;;;;;;4838986;29;20037;-81
2022/05/09 08:39:47;;;;;;;7.05;2.67;;;;;;;;;;4858186;29;20037;-83
2022/05/09 08:42:22;;;;;;;6.10;2.70;;;;;;;;;;4837103;29;20057;-82
2022/05/09 08:45:17;;;;;;;7.80;2.70;;;;;;;;;;4846896;29;20512;-85
2022/05/09 08:48:11;;;;;;;7.50;2.80;;;;;;;;;;4856926;29;20112;-83
2022/05/09 08:51:05;;;;;;;6.60;3.03;;;;;;;;;;4855051;29;20468;-85
2022/05/09 08:53:35;;;;;;;5.55;2.42;;;;;;;;;;4850296;29;20041;-84
2022/05/09 08:56:01;;;;;;;6.05;2.45;;;;;;;;;;4855064;29;20036;-84
2022/05/09 08:58:40;;;;;;;5.65;2.05;;;;;;;;;;4848726;29;20030;-81
2022/05/09 09:01:49;;;;;;;7.20;2.63;;;;;;;;;;4858803;29;20444;-82
2022/05/09 09:04:24;;;;;;;7.88;2.70;;;;;;;;;;4806778;29;20541;-85
2022/05/09 09:07:14;;;;;;;5.82;2.45;;;;;;;;;;4794788;29;20572;-83
2022/05/09 09:09:58;;;;;;;4.50;2.30;;;;;;;;;;4808856;29;20039;-83
2022/05/09 09:12:33;;;;;;;6.90;2.55;;;;;;;;;;4817103;29;20042;-82
2022/05/09 09:15:25;;;;;;;6.75;2.75;;;;;;;;;;4849052;29;20037;-84
2022/05/09 09:17:55;;;;;;;5.65;2.60;;;;;;;;;;4860020;29;20082;-84
2022/05/09 09:20:32;;;;;;;6.15;2.92;;;;;;;;;;4844117;29;20507;-86
2022/05/09 09:23:16;;;;;;;6.65;3.08;;;;;;;;;;4847758;29;20025;-85
2022/05/09 09:25:41;;;;;;;7.85;2.90;;;;;;;;;;4861159;29;20070;-84
2022/05/09 09:28:12;;;;;;;6.35;3.00;;;;;;;;;;4853378;29;20069;-83
2022/05/09 09:30:39;;;;;;;8.45;3.03;;;;;;;;;;4855424;29;20423;-84
2022/05/09 09:33:09;;;;;;;7.70;2.83;;;;;;;;;;4844578;29;20033;-82
2022/05/09 09:35:54;;;;;;;8.25;3.08;;;;;;;;;;4853194;29;20034;-82
2022/05/09 09:38:40;;;;;;;10.55;3.10;;;;;;;;;;4858628;29;20032;-85
2022/05/09 09:41:15;;;;;;;6.57;2.72;;;;;;;;;;4860601;29;20065;-81
2022/05/09 09:43:41;;;;;;;5.97;3.25;;;;;;;;;;4840488;29;20029;-83
2022/05/09 09:46:07;;;;;;;7.88;3.50;;;;;;;;;;4852700;29;20044;-85
2022/05/09 09:48:32;;;;;;;8.45;3.15;;;;;;;;;;4855627;29;20548;-86
2022/05/09 09:51:10;;;;;;;7.43;3.20;;;;;;;;;;4856616;29;20080;-82
2022/05/09 09:53:49;;;;;;;6.47;2.70;;;;;;;;;;4848160;29;20541;-84
2022/05/09 09:56:36;;;;;;;9.55;2.67;;;;;;;;;;4855708;29;20041;-84
2022/05/09 09:59:21;;;;;;;6.47;2.67;;;;;;;;;;4853826;29;20177;-84
2022/05/09 10:03:04;;;;;;;6.45;2.70;;;;;;;;;;4842847;29;20110;-81
2022/05/09 10:05:35;;;;;;;6.20;2.67;;;;;;;;;;4728877;30;20045;-83
2022/05/09 10:11:19;;;;;;;8.40;2.70;;;;;;;;;;4780095;29;20113;-83
2022/05/09 10:16:45;;;;;;;6.78;2.33;;;;;;;;;;4836331;29;20670;-83
2022/05/09 10:25:55;;;;;;;8.80;2.83;;;;;;;;;;4786545;29;20127;-84
2022/05/09 10:28:35;;;;;;;;;;;;;;;;;;;;;
2022/05/09 10:31:21;;;;;;;5.45;2.90;;;;;;;;;;4822029;29;20067;-82
2022/05/09 10:34:30;;;;;;;7.18;3.17;;;;;;;;;;4840451;29;20060;-84
2022/05/09 10:37:15;;;;;;;6.13;2.60;;;;;;;;;;4857472;29;20037;-83
2022/05/09 10:39:48;;;;;;;5.97;3.20;;;;;;;;;;4844933;29;20484;-82
2022/05/09 10:42:21;;;;;;;6.05;2.72;;;;;;;;;;4837259;29;20428;-84
2022/05/09 10:44:59;;;;;;;5.32;2.40;;;;;;;;;;4843435;29;20085;-84
2022/05/09 10:47:58;;;;;;;7.88;2.78;;;;;;;;;;4843137;29;20044;-82
2022/05/09 10:50:56;;;;;;;6.00;2.72;;;;;;;;;;4852797;29;20037;-82
2022/05/09 10:53:24;;;;;;;6.40;3.08;;;;;;;;;;4853180;29;20041;-83
2022/05/09 10:55:49;;;;;;;6.43;3.17;;;;;;;;;;4839743;29;20551;-84
2022/05/09 10:58:26;;;;;;;9.27;3.90;;;;;;;;;;4838045;29;20025;-85
2022/05/09 11:01:01;;;;;;;7.88;3.28;;;;;;;;;;4857187;29;20041;-83
2022/05/09 11:03:34;;;;;;;6.22;3.20;;;;;;;;;;4837911;29;20064;-85
2022/05/09 11:06:18;;;;;;;8.18;3.42;;;;;;;;;;4850438;29;20485;-83
2022/05/09 11:09:03;;;;;;;6.60;2.60;;;;;;;;;;4836299;29;20161;-85
2022/05/09 11:11:53;;;;;;;8.00;3.60;;;;;;;;;;4853243;29;20701;-84
2022/05/09 11:14:45;;;;;;;9.13;3.67;;;;;;;;;;4825849;29;20066;-82
2022/05/09 11:17:58;;;;;;;5.95;3.38;;;;;;;;;;4839867;29;20034;-83
2022/05/09 11:20:51;;;;;;;8.80;3.80;;;;;;;;;;4812306;29;20033;-82
2022/05/09 11:23:45;;;;;;;6.60;3.45;;;;;;;;;;4842005;29;20033;-79
2022/05/09 11:26:41;;;;;;;7.35;3.35;;;;;;;;;;4838721;29;20430;-82
2022/05/09 11:29:14;;;;;;;5.93;3.35;;;;;;;;;;4841792;29;20033;-77
2022/05/09 11:32:03;;;;;;;5.88;3.38;;;;;;;;;;4853602;29;20081;-83
2022/05/09 11:34:47;;;;;;;8.20;3.90;;;;;;;;;;4853087;29;20025;-78
2022/05/09 11:37:19;;;;;;;8.32;3.67;;;;;;;;;;4851775;29;20121;-77
2022/05/09 11:40:26;;;;;;;9.55;3.88;;;;;;;;;;4839237;29;20507;-78
2022/05/09 11:43:35;;;;;;;6.45;3.22;;;;;;;;;;4844446;29;20053;-79
2022/05/09 11:46:15;;;;;;;7.32;3.40;;;;;;;;;;4852461;29;20033;-79
2022/05/09 11:48:59;;;;;;;7.45;3.72;;;;;;;;;;4846927;29;20069;-83
2022/05/09 11:51:57;;;;;;;7.90;3.65;;;;;;;;;;4838199;29;20034;-82
2022/05/09 11:54:28;;;;;;;8.63;3.83;;;;;;;;;;4853734;29;20514;-79
2022/05/09 11:56:58;;;;;;;6.63;3.10;;;;;;;;;;4839175;29;20028;-80
2022/05/09 11:59:32;;;;;;;6.72;3.28;;;;;;;;;;4847337;29;20037;-80
2022/05/09 12:02:09;;;;;;;9.70;4.88;;;;;;;;;;4838068;29;20539;-82
2022/05/09 12:04:45;;;;;;;6.22;3.15;;;;;;;;;;4859880;29;20037;-79
2022/05/09 12:07:26;;;;;;;6.38;3.63;;;;;;;;;;4834070;29;20034;-82
2022/05/09 12:10:03;;;;;;;5.78;3.20;;;;;;;;;;4837656;29;20043;-78
2022/05/09 12:12:37;;;;;;;6.63;3.38;;;;;;;;;;4855259;29;20068;-79
2022/05/09 12:15:30;;;;;;;6.18;3.97;;;;;;;;;;4856937;29;20060;-77
2022/05/09 12:17:58;;;;;;;9.20;4.63;;;;;;;;;;4848970;29;20037;-82
2022/05/09 12:20:27;;;;;;;6.78;3.70;;;;;;;;;;4838146;29;20034;-82
2022/05/09 12:22:56;;;;;;;9.43;4.10;;;;;;;;;;4857389;29;20040;-80
2022/05/09 12:25:34;;;;;;;7.50;3.67;;;;;;;;;;4854489;29;20089;-78
2022/05/09 12:28:20;;;;;;;7.00;3.50;;;;;;;;;;4852911;29;20057;-82
2022/05/09 12:30:58;;;;;;;6.85;4.05;;;;;;;;;;4840945;29;20499;-80
2022/05/09 12:33:34;;;;;;;6.82;4.55;;;;;;;;;;4849835;29;20037;-80
2022/05/09 12:36:22;;;;;;;7.35;4.30;;;;;;;;;;4840553;29;20062;-79
2022/05/09 12:38:55;;;;;;;6.65;4.43;;;;;;;;;;4853103;29;20025;-78
2022/05/09 12:41:26;;;;;;;9.75;4.28;;;;;;;;;;4849573;29;20369;-77
2022/05/09 12:44:08;;;;;;;8.02;4.70;;;;;;;;;;4854249;29;20036;-80
2022/05/09 12:46:40;;;;;;;7.60;3.97;;;;;;;;;;4851061;29;20037;-78
2022/05/09 12:49:08;;;;;;;9.15;4.57;;;;;;;;;;4853375;29;20036;-82
2022/05/09 12:51:43;;;;;;;7.88;4.22;;;;;;;;;;4838618;29;20038;-82
2022/05/09 12:54:11;;;;;;;5.53;3.08;;;;;;;;;;4848660;29;20093;-80
2022/05/09 12:56:37;;;;;;;5.78;3.17;;;;;;;;;;4850231;29;20090;-79
2022/05/09 12:59:11;;;;;;;8.30;4.50;;;;;;;;;;4846737;29;20429;-79
2022/05/09 13:01:43;;;;;;;8.68;4.10;;;;;;;;;;4840068;29;20085;-80
2022/05/09 13:04:25;;;;;;;7.82;4.22;;;;;;;;;;4839148;29;20040;-79
2022/05/09 13:06:54;;;;;;;9.13;4.05;;;;;;;;;;4854022;29;20064;-78
2022/05/09 13:09:22;;;;;;;9.15;4.05;;;;;;;;;;4856260;29;20060;-82
2022/05/09 13:11:52;;;;;;;6.47;3.72;;;;;;;;;;4851423;29;20396;-78
2022/05/09 13:14:23;;;;;;;7.78;4.03;;;;;;;;;;4852325;29;20116;-79
2022/05/09 13:16:55;;;;;;;6.45;4.00;;;;;;;;;;4850266;29;20025;-81
2022/05/09 13:19:21;;;;;;;7.07;4.22;;;;;;;;;;4849878;29;20080;-83
2022/05/09 13:21:49;;;;;;;7.15;3.08;;;;;;;;;;4856041;29;20044;-79
2022/05/09 13:24:25;;;;;;;5.40;3.00;;;;;;;;;;4849273;29;20063;-78
2022/05/09 13:26:55;;;;;;;8.48;3.97;;;;;;;;;;4853991;29;20041;-79
2022/05/09 13:29:31;;;;;;;7.45;4.80;;;;;;;;;;4856173;29;20069;-83
2022/05/09 13:31:56;;;;;;;7.13;4.60;;;;;;;;;;4854793;29;20049;-78
2022/05/09 13:34:29;;;;;;;6.72;4.72;;;;;;;;;;4839154;29;20552;-79
2022/05/09 13:36:55;;;;;;;8.50;4.30;;;;;;;;;;4842442;29;20033;-78
2022/05/09 13:39:26;;;;;;;7.68;4.32;;;;;;;;;;4852566;29;20034;-80
2022/05/09 13:41:53;;;;;;;6.07;3.33;;;;;;;;;;4835454;29;20028;-80
2022/05/09 13:44:23;;;;;;;5.43;2.90;;;;;;;;;;4851598;29;20034;-83
2022/05/09 13:46:51;;;;;;;7.20;2.75;;;;;;;;;;4839591;29;20028;-80
2022/05/09 13:49:19;;;;;;;5.32;2.50;;;;;;;;;;4853432;29;20495;-81
2022/05/09 13:51:59;;;;;;;5.75;2.95;;;;;;;;;;4851502;29;21928;-80
2022/05/09 13:54:27;;;;;;;5.47;3.10;;;;;;;;;;4838217;29;20057;-81
2022/05/09 13:57:16;;;;;;;5.50;2.65;;;;;;;;;;4849031;29;20036;-79
2022/05/09 13:59:42;;;;;;;8.15;3.90;;;;;;;;;;4849590;29;20074;-78
2022/05/09 14:02:11;;;;;;;6.85;3.20;;;;;;;;;;4849198;29;20045;-79
2022/05/09 14:04:38;;;;;;;6.20;3.08;;;;;;;;;;4851549;29;20026;-79
2022/05/09 14:07:37;;;;;;;6.82;2.78;;;;;;;;;;4839412;29;20037;-82
2022/05/09 14:09:50;;;;;;;5.70;2.67;;;;;;;;;;4850375;29;20042;-80
2022/05/09 14:12:19;;;;;;;4.88;2.70;;;;;;;;;;4840363;29;20482;-80
2022/05/09 14:14:48;;;;;;;5.97;3.30;;;;;;;;;;4839876;29;20037;-78
2022/05/09 14:17:38;;;;;;;4.72;2.80;;;;;;;;;;4841519;29;20036;-81
2022/05/09 14:20:08;;;;;;;7.75;3.38;;;;;;;;;;4852337;29;20041;-79
2022/05/09 14:22:35;;;;;;;5.18;2.63;;;;;;;;;;4837224;29;20063;-80
2022/05/09 14:30:40;;;;;;;7.05;2.92;;;;;;;;;;4851656;29;20157;-79
2022/05/09 14:33:07;;;;;;;5.47;2.42;;;;;;;;;;4850330;29;20061;-83
2022/05/09 14:35:46;;;;;;;8.60;3.10;;;;;;;;;;4840302;29;20037;-82
2022/05/09 14:38:36;;;;;;;7.93;2.80;;;;;;;;;;4848993;29;20017;-82
2022/05/09 14:41:42;;;;;;;7.35;3.55;;;;;;;;;;4846684;29;20094;-82
2022/05/09 14:44:14;;;;;;;5.90;2.70;;;;;;;;;;4835006;29;20057;-81
2022/05/09 14:47:00;;;;;;;7.95;3.10;;;;;;;;;;4850674;29;20038;-81
2022/05/09 14:49:27;;;;;;;5.88;3.00;;;;;;;;;;4838836;29;20086;-80
2022/05/09 14:51:59;;;;;;;5.95;2.70;;;;;;;;;;4848105;29;20072;-79
2022/05/09 14:54:29;;;;;;;;;;;;;;;;;;4850943;29;20036;-79
2022/05/09 14:59:47;;;;;;;7.72;2.83;;;;;;;;;;4841076;29;20057;-80
2022/05/09 15:02:22;;;;;;;8.63;3.00;;;;;;;;;;4826207;29;20511;-80
2022/05/09 15:04:47;;;;;;;5.93;3.10;;;;;;;;;;4839039;29;20048;-81
2022/05/09 15:07:13;;;;;;;6.05;2.58;;;;;;;;;;4840806;29;20078;-80
2022/05/09 15:09:38;;;;;;;5.68;2.58;;;;;;;;;;4832307;29;20110;-78
2022/05/09 15:12:23;;;;;;;7.38;2.75;;;;;;;;;;4828745;29;20093;-80
2022/05/09 15:14:49;;;;;;;5.18;2.75;;;;;;;;;;4828758;29;20033;-81
2022/05/09 15:17:15;;;;;;;7.55;3.00;;;;;;;;;;4829873;29;20039;-80
2022/05/09 15:19:41;;;;;;;5.28;2.72;;;;;;;;;;4828607;29;20033;-80
2022/05/09 15:22:06;;;;;;;6.20;2.58;;;;;;;;;;4842091;29;20033;-80
2022/05/09 15:24:32;;;;;;;6.75;2.78;;;;;;;;;;4840858;29;20033;-80
2022/05/09 15:26:58;;;;;;;5.50;2.70;;;;;;;;;;4839698;29;20470;-80
2022/05/09 15:29:25;;;;;;;5.00;2.40;;;;;;;;;;4828867;29;20034;-80
2022/05/09 15:31:51;;;;;;;5.88;2.30;;;;;;;;;;4823663;29;20049;-79
2022/05/09 15:34:17;;;;;;;5.28;2.58;;;;;;;;;;4844927;29;20028;-82